Sangster International Airport
MKJS : now visible

Airfield :











YOU CAN JOIN US ON...

 
LOGIN :

Register | Disclaimer

   EN    FR    IT 

 









Legend :    VFR   Marginal VFR   IFR   Intensive IFR   Very Intensive IFR
Visi :
Ceiling :
>= 8 km
>= 3000ft
5 to 8 km
1000 to 3000 ft
1500m to 5 km
500 to 1000 ft
800 to 1500m
200 to 500 ft
< 800m
< 200 ft
Symbols :   Thunderstorms  Fog  Heavy snow  Heavy precipitations  Wind > 20 kt






- Airport Elevation : 4 ft
- IATA code : MBJ


MKJS - Sangster International

CURRENT METAR :
  • 180700Z 12003KT 9999 FEW022 25/23 Q1014

EXPIRED METARs :
  • 180600Z 11004KT 9999 FEW022 25/21 Q1015
  • 180500Z 10004KT 9999 FEW022 26/22 Q1015

TAF TAF MKJS
Valid from the 18 at 06:00 until the 19 at 06:00 UTC


180515Z 1806/1906 11005KT 9999 FEW022
BECMG 1814/1816 08020KT
BECMG 1901/1903 12005KT



MET'MAP, your aeronautical weather chart ! - Copyright ORBIFLY December 2007 - Disclaimer

ORBIFLY MET'MAP TEAM :

Programming & Development : Alexandra Zaïnal
Concept & original design : Baudouin d'Aumeries
Assistance for programming : Marc-Olivier Méhu
Technical & hardware support : Manuel Goepfert

Contact : metmap@orbifly.com




SOURCES & CREDITS :

   NOAA       Earth
Advisory